sensor_id;sensor_type;location;lat;lon;timestamp;temperature;humidity
34522;DHT22;25561;48.888;8.736;2022-11-11T06:50:04;4.40;99.90
34522;DHT22;25561;48.888;8.736;2022-11-11T06:53:09;4.80;99.90
34522;DHT22;25561;48.888;8.736;2022-11-11T06:56:12;5.20;99.90
34522;DHT22;25561;48.888;8.736;2022-11-11T06:59:14;5.50;99.90
34522;DHT22;25561;48.888;8.736;2022-11-11T07:02:16;5.60;99.90
34522;DHT22;25561;48.888;8.736;2022-11-11T07:05:18;5.80;99.90
34522;DHT22;25561;48.888;8.736;2022-11-11T07:08:20;5.80;99.90
34522;DHT22;25561;48.888;8.736;2022-11-11T07:11:23;6.00;99.90
34522;DHT22;25561;48.888;8.736;2022-11-11T07:14:26;6.10;99.90
34522;DHT22;25561;48.888;8.736;2022-11-11T07:17:28;6.10;99.90
34522;DHT22;25561;48.888;8.736;2022-11-11T07:20:31;6.20;99.90
34522;DHT22;25561;48.888;8.736;2022-11-11T07:23:34;6.30;99.90
34522;DHT22;25561;48.888;8.736;2022-11-11T07:26:36;6.30;99.90
34522;DHT22;25561;48.888;8.736;2022-11-11T07:29:38;6.30;99.90
34522;DHT22;25561;48.888;8.736;2022-11-11T07:32:46;6.40;99.90
34522;DHT22;25561;48.888;8.736;2022-11-11T07:35:49;6.50;99.90
34522;DHT22;25561;48.888;8.736;2022-11-11T07:38:52;6.60;99.90
34522;DHT22;25561;48.888;8.736;2022-11-11T07:41:54;6.70;99.90
34522;DHT22;25561;48.888;8.736;2022-11-11T07:44:56;6.40;99.90
34522;DHT22;25561;48.888;8.736;2022-11-11T07:47:59;6.50;99.90
34522;DHT22;25561;48.888;8.736;2022-11-11T07:51:01;6.70;99.90
34522;DHT22;25561;48.888;8.736;2022-11-11T07:54:03;6.70;99.90
34522;DHT22;25561;48.888;8.736;2022-11-11T07:57:06;6.80;99.90
34522;DHT22;25561;48.888;8.736;2022-11-11T08:00:09;7.00;99.90
34522;DHT22;25561;48.888;8.736;2022-11-11T08:03:12;7.10;99.90
34522;DHT22;25561;48.888;8.736;2022-11-11T08:06:17;7.40;99.90
34522;DHT22;25561;48.888;8.736;2022-11-11T08:09:20;7.50;99.90
34522;DHT22;25561;48.888;8.736;2022-11-11T08:12:23;7.50;99.90
34522;DHT22;25561;48.888;8.736;2022-11-11T08:15:46;7.40;99.90
34522;DHT22;25561;48.888;8.736;2022-11-11T08:18:49;7.70;99.90
34522;DHT22;25561;48.888;8.736;2022-11-11T08:21:53;7.70;99.90
34522;DHT22;25561;48.888;8.736;2022-11-11T08:24:55;7.70;99.90
34522;DHT22;25561;48.888;8.736;2022-11-11T08:28:05;8.10;99.90
34522;DHT22;25561;48.888;8.736;2022-11-11T08:31:07;8.00;99.90
34522;DHT22;25561;48.888;8.736;2022-11-11T08:34:10;8.30;99.90
34522;DHT22;25561;48.888;8.736;2022-11-11T08:37:12;8.30;99.90
34522;DHT22;25561;48.888;8.736;2022-11-11T08:40:15;7.80;99.90
34522;DHT22;25561;48.888;8.736;2022-11-11T08:43:18;7.70;99.90
34522;DHT22;25561;48.888;8.736;2022-11-11T08:46:20;8.20;99.90
34522;DHT22;25561;48.888;8.736;2022-11-11T08:49:22;9.00;99.90
34522;DHT22;25561;48.888;8.736;2022-11-11T08:52:24;9.60;99.90
34522;DHT22;25561;48.888;8.736;2022-11-11T08:55:27;9.80;99.90
34522;DHT22;25561;48.888;8.736;2022-11-11T08:58:29;9.90;99.90
34522;DHT22;25561;48.888;8.736;2022-11-11T09:01:32;11.10;99.90
34522;DHT22;25561;48.888;8.736;2022-11-11T09:04:37;11.80;99.90
34522;DHT22;25561;48.888;8.736;2022-11-11T09:07:49;12.70;99.90
34522;DHT22;25561;48.888;8.736;2022-11-11T09:10:52;13.70;99.90
34522;DHT22;25561;48.888;8.736;2022-11-11T09:13:56;14.90;99.90
34522;DHT22;25561;48.888;8.736;2022-11-11T09:17:00;15.60;99.90
34522;DHT22;25561;48.888;8.736;2022-11-11T09:20:03;16.00;99.90
34522;DHT22;25561;48.888;8.736;2022-11-11T09:23:07;16.20;99.90
34522;DHT22;25561;48.888;8.736;2022-11-11T09:26:10;16.20;99.90
34522;DHT22;25561;48.888;8.736;2022-11-11T09:29:12;16.90;99.90
34522;DHT22;25561;48.888;8.736;2022-11-11T09:32:14;16.70;99.90
34522;DHT22;25561;48.888;8.736;2022-11-11T09:35:17;16.20;99.90
34522;DHT22;25561;48.888;8.736;2022-11-11T09:38:21;15.90;99.90
34522;DHT22;25561;48.888;8.736;2022-11-11T09:41:42;15.70;99.90
34522;DHT22;25561;48.888;8.736;2022-11-11T09:45:00;15.20;99.90
34522;DHT22;25561;48.888;8.736;2022-11-11T09:51:54;17.60;99.90
34522;DHT22;25561;48.888;8.736;2022-11-11T09:55:05;17.60;99.90
34522;DHT22;25561;48.888;8.736;2022-11-11T09:58:31;17.20;99.90
34522;DHT22;25561;48.888;8.736;2022-11-11T10:01:44;15.90;99.90
34522;DHT22;25561;48.888;8.736;2022-11-11T10:04:58;15.80;99.90
34522;DHT22;25561;48.888;8.736;2022-11-11T10:08:05;16.10;99.90
34522;DHT22;25561;48.888;8.736;2022-11-11T10:11:15;15.90;99.90
34522;DHT22;25561;48.888;8.736;2022-11-11T10:14:19;16.00;99.90
34522;DHT22;25561;48.888;8.736;2022-11-11T10:17:37;16.60;99.90
34522;DHT22;25561;48.888;8.736;2022-11-11T10:20:41;16.30;99.90
34522;DHT22;25561;48.888;8.736;2022-11-11T10:23:49;15.80;99.90
34522;DHT22;25561;48.888;8.736;2022-11-11T10:26:53;15.60;99.90
34522;DHT22;25561;48.888;8.736;2022-11-11T10:29:55;15.60;99.90
34522;DHT22;25561;48.888;8.736;2022-11-11T10:33:00;15.70;99.90
34522;DHT22;25561;48.888;8.736;2022-11-11T10:36:04;15.70;99.90
34522;DHT22;25561;48.888;8.736;2022-11-11T10:39:10;15.40;99.90
34522;DHT22;25561;48.888;8.736;2022-11-11T10:42:17;14.90;99.90
34522;DHT22;25561;48.888;8.736;2022-11-11T10:45:37;14.70;99.90
34522;DHT22;25561;48.888;8.736;2022-11-11T10:48:51;15.00;99.90
34522;DHT22;25561;48.888;8.736;2022-11-11T10:51:59;15.30;99.90
34522;DHT22;25561;48.888;8.736;2022-11-11T10:55:07;15.30;99.90
34522;DHT22;25561;48.888;8.736;2022-11-11T10:58:27;15.30;99.90
34522;DHT22;25561;48.888;8.736;2022-11-11T11:01:39;15.60;99.90
34522;DHT22;25561;48.888;8.736;2022-11-11T11:04:49;15.90;99.90
34522;DHT22;25561;48.888;8.736;2022-11-11T11:07:56;15.70;99.90
34522;DHT22;25561;48.888;8.736;2022-11-11T11:11:04;15.70;99.90
34522;DHT22;25561;48.888;8.736;2022-11-11T11:14:14;15.80;99.90
34522;DHT22;25561;48.888;8.736;2022-11-11T11:17:23;15.90;99.90
34522;DHT22;25561;48.888;8.736;2022-11-11T11:20:32;15.80;99.90
34522;DHT22;25561;48.888;8.736;2022-11-11T11:23:34;15.90;99.90
34522;DHT22;25561;48.888;8.736;2022-11-11T11:26:46;15.80;99.90
34522;DHT22;25561;48.888;8.736;2022-11-11T11:29:48;16.10;99.90
34522;DHT22;25561;48.888;8.736;2022-11-11T11:33:01;15.80;99.90
34522;DHT22;25561;48.888;8.736;2022-11-11T11:36:15;15.60;99.90
34522;DHT22;25561;48.888;8.736;2022-11-11T11:39:31;15.10;99.90
34522;DHT22;25561;48.888;8.736;2022-11-11T11:42:36;14.60;99.90
34522;DHT22;25561;48.888;8.736;2022-11-11T11:45:38;14.00;99.90
34522;DHT22;25561;48.888;8.736;2022-11-11T11:49:15;13.60;99.90
34522;DHT22;25561;48.888;8.736;2022-11-11T11:52:25;13.60;99.90
34522;DHT22;25561;48.888;8.736;2022-11-11T11:55:36;13.10;99.90
34522;DHT22;25561;48.888;8.736;2022-11-11T11:58:54;13.30;99.90
34522;DHT22;25561;48.888;8.736;2022-11-11T12:02:14;13.40;99.90
34522;DHT22;25561;48.888;8.736;2022-11-11T12:05:24;13.50;99.90
34522;DHT22;25561;48.888;8.736;2022-11-11T12:12:05;13.50;99.90
34522;DHT22;25561;48.888;8.736;2022-11-11T12:15:22;13.40;99.90
34522;DHT22;25561;48.888;8.736;2022-11-11T12:22:37;13.50;99.90
34522;DHT22;25561;48.888;8.736;2022-11-11T12:26:00;13.70;99.90
34522;DHT22;25561;48.888;8.736;2022-11-11T12:36:43;13.70;99.90
34522;DHT22;25561;48.888;8.736;2022-11-11T12:43:43;13.70;99.90
34522;DHT22;25561;48.888;8.736;2022-11-11T12:47:01;13.50;99.90
34522;DHT22;25561;48.888;8.736;2022-11-11T12:50:32;13.70;99.90
34522;DHT22;25561;48.888;8.736;2022-11-11T12:53:52;13.80;99.90
34522;DHT22;25561;48.888;8.736;2022-11-11T12:57:14;13.80;99.90
34522;DHT22;25561;48.888;8.736;2022-11-11T13:00:20;13.80;99.90
34522;DHT22;25561;48.888;8.736;2022-11-11T13:13:59;13.50;99.90
34522;DHT22;25561;48.888;8.736;2022-11-11T13:17:11;13.50;99.90
34522;DHT22;25561;48.888;8.736;2022-11-11T13:20:22;13.40;99.90
34522;DHT22;25561;48.888;8.736;2022-11-11T13:23:26;13.30;99.90
34522;DHT22;25561;48.888;8.736;2022-11-11T13:26:35;13.30;99.90
34522;DHT22;25561;48.888;8.736;2022-11-11T13:29:57;13.30;99.90
34522;DHT22;25561;48.888;8.736;2022-11-11T13:36:13;13.40;99.90
34522;DHT22;25561;48.888;8.736;2022-11-11T13:39:37;13.40;99.90
34522;DHT22;25561;48.888;8.736;2022-11-11T13:42:45;13.50;99.90
34522;DHT22;25561;48.888;8.736;2022-11-11T13:45:53;13.60;99.90
34522;DHT22;25561;48.888;8.736;2022-11-11T13:48:55;13.70;99.90
34522;DHT22;25561;48.888;8.736;2022-11-11T13:52:00;13.80;99.90
34522;DHT22;25561;48.888;8.736;2022-11-11T13:55:23;13.70;99.90
34522;DHT22;25561;48.888;8.736;2022-11-11T13:58:37;13.70;99.90
34522;DHT22;25561;48.888;8.736;2022-11-11T14:01:40;13.70;99.90
34522;DHT22;25561;48.888;8.736;2022-11-11T14:08:06;13.60;99.90
34522;DHT22;25561;48.888;8.736;2022-11-11T14:11:28;13.60;99.90
34522;DHT22;25561;48.888;8.736;2022-11-11T14:17:33;13.60;99.90
34522;DHT22;25561;48.888;8.736;2022-11-11T14:20:38;13.40;99.90
34522;DHT22;25561;48.888;8.736;2022-11-11T14:23:41;13.40;99.90
34522;DHT22;25561;48.888;8.736;2022-11-11T14:27:03;13.40;99.90
34522;DHT22;25561;48.888;8.736;2022-11-11T14:30:12;13.20;99.90
34522;DHT22;25561;48.888;8.736;2022-11-11T14:33:35;13.10;99.90
34522;DHT22;25561;48.888;8.736;2022-11-11T14:36:50;13.20;99.90
34522;DHT22;25561;48.888;8.736;2022-11-11T14:39:54;12.90;99.90
34522;DHT22;25561;48.888;8.736;2022-11-11T14:42:57;12.80;99.90
34522;DHT22;25561;48.888;8.736;2022-11-11T14:46:02;12.70;99.90
34522;DHT22;25561;48.888;8.736;2022-11-11T14:49:03;12.70;99.90
34522;DHT22;25561;48.888;8.736;2022-11-11T14:52:33;12.70;99.90
34522;DHT22;25561;48.888;8.736;2022-11-11T14:55:38;12.80;99.90
34522;DHT22;25561;48.888;8.736;2022-11-11T14:58:40;12.70;99.90
34522;DHT22;25561;48.888;8.736;2022-11-11T15:01:44;12.70;99.90
34522;DHT22;25561;48.888;8.736;2022-11-11T15:04:46;12.60;99.90
34522;DHT22;25561;48.888;8.736;2022-11-11T15:08:00;12.60;99.90
34522;DHT22;25561;48.888;8.736;2022-11-11T15:11:32;12.40;99.90
34522;DHT22;25561;48.888;8.736;2022-11-11T15:18:02;12.30;99.90
34522;DHT22;25561;48.888;8.736;2022-11-11T15:21:39;12.30;99.90
34522;DHT22;25561;48.888;8.736;2022-11-11T15:24:54;12.20;99.90
34522;DHT22;25561;48.888;8.736;2022-11-11T15:31:54;12.00;99.90
34522;DHT22;25561;48.888;8.736;2022-11-11T15:38:29;11.50;99.90
34522;DHT22;25561;48.888;8.736;2022-11-11T15:41:35;11.40;99.90
34522;DHT22;25561;48.888;8.736;2022-11-11T15:44:37;11.30;99.90
34522;DHT22;25561;48.888;8.736;2022-11-11T15:47:39;11.20;99.90
34522;DHT22;25561;48.888;8.736;2022-11-11T15:50:41;11.10;99.90
34522;DHT22;25561;48.888;8.736;2022-11-11T15:53:43;10.90;99.90
34522;DHT22;25561;48.888;8.736;2022-11-11T15:56:45;10.80;99.90
34522;DHT22;25561;48.888;8.736;2022-11-11T15:59:46;10.60;99.90
34522;DHT22;25561;48.888;8.736;2022-11-11T16:02:50;10.50;99.90
34522;DHT22;25561;48.888;8.736;2022-11-11T16:05:52;10.50;99.90
34522;DHT22;25561;48.888;8.736;2022-11-11T16:08:54;10.40;99.90
34522;DHT22;25561;48.888;8.736;2022-11-11T16:11:57;10.40;99.90
34522;DHT22;25561;48.888;8.736;2022-11-11T16:15:00;10.20;99.90
34522;DHT22;25561;48.888;8.736;2022-11-11T16:18:06;10.20;99.90
34522;DHT22;25561;48.888;8.736;2022-11-11T16:21:16;10.10;99.90
34522;DHT22;25561;48.888;8.736;2022-11-11T16:24:25;10.00;99.90
34522;DHT22;25561;48.888;8.736;2022-11-11T16:27:30;10.00;99.90
34522;DHT22;25561;48.888;8.736;2022-11-11T16:30:35;9.90;99.90
34522;DHT22;25561;48.888;8.736;2022-11-11T16:33:37;9.70;99.90
34522;DHT22;25561;48.888;8.736;2022-11-11T16:36:57;9.70;99.90
34522;DHT22;25561;48.888;8.736;2022-11-11T16:40:39;9.60;99.90
34522;DHT22;25561;48.888;8.736;2022-11-11T16:43:42;9.40;99.90
34522;DHT22;25561;48.888;8.736;2022-11-11T16:46:44;9.40;99.90
34522;DHT22;25561;48.888;8.736;2022-11-11T16:50:15;9.30;99.90
34522;DHT22;25561;48.888;8.736;2022-11-11T16:53:26;9.30;99.90
34522;DHT22;25561;48.888;8.736;2022-11-11T16:56:34;9.20;99.90
34522;DHT22;25561;48.888;8.736;2022-11-11T16:59:41;9.20;99.90
